createdAt,value
2018-05-24T00:01:00.833Z,16.3
2018-05-24T00:02:08.066Z,16.3
2018-05-24T00:03:15.268Z,16.3
2018-05-24T00:04:22.714Z,16.3
2018-05-24T00:05:29.957Z,16.3
2018-05-24T00:06:37.407Z,16.3
2018-05-24T00:07:44.618Z,16.3
2018-05-24T00:08:52.133Z,16.2
2018-05-24T00:09:59.369Z,16.2
2018-05-24T00:11:06.609Z,16.1
2018-05-24T00:12:13.820Z,16
2018-05-24T00:13:21.050Z,16
2018-05-24T00:14:27.985Z,16
2018-05-24T00:15:35.203Z,15.9
2018-05-24T00:16:42.410Z,15.9
2018-05-24T00:17:49.643Z,15.9
2018-05-24T00:18:56.881Z,15.8
2018-05-24T00:20:04.122Z,15.8
2018-05-24T00:21:11.332Z,15.8
2018-05-24T00:22:18.546Z,15.8
2018-05-24T00:23:25.821Z,15.8
2018-05-24T00:24:33.053Z,15.7
2018-05-24T00:25:40.270Z,15.7
2018-05-24T00:26:47.494Z,15.7
2018-05-24T00:27:54.720Z,15.7
2018-05-24T00:29:02.147Z,15.7
2018-05-24T00:30:09.358Z,15.7
2018-05-24T00:31:16.801Z,15.8
2018-05-24T00:32:24.010Z,15.7
2018-05-24T00:33:30.975Z,15.7
2018-05-24T00:34:38.180Z,15.8
2018-05-24T00:35:45.629Z,15.8
2018-05-24T00:36:52.836Z,15.8
2018-05-24T00:37:59.775Z,15.8
2018-05-24T00:39:07.060Z,15.8
2018-05-24T00:40:14.267Z,15.7
2018-05-24T00:41:21.477Z,15.7
2018-05-24T00:42:28.703Z,15.7
2018-05-24T00:43:35.614Z,15.7
2018-05-24T00:44:42.820Z,15.7
2018-05-24T00:45:50.056Z,15.7
2018-05-24T00:46:57.284Z,15.6
2018-05-24T00:48:04.234Z,15.6
2018-05-24T00:49:11.433Z,15.6
2018-05-24T00:50:18.644Z,15.6
2018-05-24T00:51:25.859Z,15.6
2018-05-24T00:52:33.080Z,15.6
2018-05-24T00:53:40.288Z,15.6
2018-05-24T00:54:47.706Z,15.6
2018-05-24T00:55:55.000Z,15.6
2018-05-24T00:57:02.209Z,15.6
2018-05-24T00:58:09.151Z,15.6
2018-05-24T00:59:16.360Z,15.6
2018-05-24T01:00:23.586Z,15.6
2018-05-24T01:01:30.513Z,15.5
2018-05-24T01:02:37.443Z,15.5
2018-05-24T01:03:44.660Z,15.6
2018-05-24T01:04:51.870Z,15.6
2018-05-24T01:05:58.811Z,15.5
2018-05-24T01:07:06.034Z,15.6
2018-05-24T01:08:13.244Z,15.6
2018-05-24T01:09:20.197Z,15.6
2018-05-24T01:10:27.404Z,15.6
2018-05-24T01:11:34.620Z,15.5
2018-05-24T01:12:41.826Z,15.5
2018-05-24T01:13:49.034Z,15.5
2018-05-24T01:14:56.238Z,15.5
2018-05-24T22:00:06.508Z,16
2018-05-24T22:01:13.721Z,16
2018-05-24T22:02:20.934Z,16
2018-05-24T22:03:28.147Z,16
2018-05-24T22:04:35.352Z,16
2018-05-24T22:05:42.291Z,16
2018-05-24T22:06:50.459Z,16
2018-05-24T22:07:57.708Z,16
2018-05-24T22:09:04.920Z,16
2018-05-24T22:10:12.148Z,16
2018-05-24T22:11:19.079Z,16
2018-05-24T22:12:26.304Z,16
2018-05-24T22:13:33.526Z,16
2018-05-24T22:14:40.738Z,16
2018-05-24T22:15:47.947Z,16
2018-05-24T22:16:55.155Z,16
2018-05-24T22:18:02.378Z,16
2018-05-24T22:19:09.589Z,16
2018-05-24T22:20:16.800Z,16
2018-05-24T22:21:24.017Z,16
2018-05-24T22:22:31.226Z,16
2018-05-24T22:23:38.439Z,16
2018-05-24T22:24:45.669Z,16
2018-05-24T22:25:52.622Z,16
2018-05-24T22:26:59.836Z,16
2018-05-24T22:28:07.053Z,16
2018-05-24T22:29:14.266Z,16
2018-05-24T22:30:21.511Z,16
2018-05-24T22:31:28.730Z,15.9
2018-05-24T22:32:35.969Z,15.9
2018-05-24T22:33:42.881Z,15.9
2018-05-24T22:34:50.109Z,15.9
2018-05-24T22:35:57.321Z,15.9
2018-05-24T22:37:04.263Z,16
2018-05-24T22:38:11.484Z,16
2018-05-24T22:39:18.698Z,16
2018-05-24T22:40:25.913Z,16
2018-05-24T22:41:33.130Z,16
2018-05-24T22:42:40.346Z,16
2018-05-24T22:43:47.295Z,16
2018-05-24T22:44:54.523Z,15.9
2018-05-24T22:46:01.776Z,15.9
2018-05-24T22:47:08.989Z,15.9
2018-05-24T22:48:16.190Z,15.9
2018-05-24T22:49:23.417Z,15.9
2018-05-24T22:50:30.634Z,15.9
2018-05-24T22:51:37.853Z,15.9
2018-05-24T22:52:44.809Z,15.9
2018-05-24T22:53:52.016Z,15.9
2018-05-24T22:54:59.236Z,15.9
2018-05-24T22:56:06.451Z,15.9
2018-05-24T22:57:13.757Z,15.9
2018-05-24T22:58:20.979Z,15.9
2018-05-24T22:59:28.234Z,15.9
2018-05-24T23:00:35.555Z,15.9
2018-05-24T23:01:42.770Z,15.9
2018-05-24T23:02:49.985Z,15.8
2018-05-24T23:03:57.199Z,15.8
2018-05-24T23:05:04.486Z,15.7
2018-05-24T23:06:11.898Z,15.7
2018-05-24T23:07:18.844Z,15.7
2018-05-24T23:08:25.780Z,15.7
2018-05-24T23:09:32.989Z,15.7
2018-05-24T23:10:39.946Z,15.7
2018-05-24T23:11:48.122Z,15.6
2018-05-24T23:12:55.335Z,15.6
2018-05-24T23:14:02.539Z,15.7
2018-05-24T23:15:09.777Z,15.6
2018-05-24T23:16:17.012Z,15.6
2018-05-24T23:17:23.963Z,15.6
2018-05-24T23:18:31.197Z,15.6
2018-05-24T23:19:38.426Z,15.6
2018-05-24T23:20:45.651Z,15.6
2018-05-24T23:21:52.858Z,15.6
2018-05-24T23:22:59.831Z,15.6
2018-05-24T23:24:06.794Z,15.6
2018-05-24T23:25:14.011Z,15.6
2018-05-24T23:26:20.961Z,15.5
2018-05-24T23:27:28.173Z,15.5
2018-05-24T23:28:35.403Z,15.5
2018-05-24T23:29:42.617Z,15.5
2018-05-24T23:30:49.560Z,15.5
2018-05-24T23:31:56.775Z,15.5
2018-05-24T23:33:04.220Z,15.5
2018-05-24T23:34:11.650Z,15.5
2018-05-24T23:35:18.865Z,15.5
2018-05-24T23:36:26.091Z,15.5
2018-05-24T23:37:33.540Z,15.5
2018-05-24T23:38:40.476Z,15.4
2018-05-24T23:39:47.684Z,15.4
2018-05-24T23:40:54.918Z,15.4
2018-05-24T23:42:02.128Z,15.4
2018-05-24T23:43:09.352Z,15.4
2018-05-24T23:44:16.310Z,15.3
2018-05-24T23:45:23.520Z,15.3
2018-05-24T23:46:30.216Z,15.3
2018-05-24T23:47:37.428Z,15.3
2018-05-24T23:48:44.354Z,15.3
2018-05-24T23:49:51.576Z,15.3
2018-05-24T23:50:58.511Z,15.3
2018-05-24T23:52:05.725Z,15.3
2018-05-24T23:53:12.930Z,15.2
2018-05-24T23:54:20.146Z,15.2
2018-05-24T23:55:27.352Z,15.2
2018-05-24T23:56:34.566Z,15.1
2018-05-24T23:57:41.777Z,15.1
2018-05-24T23:58:48.989Z,15.1
2018-05-24T23:59:56.199Z,15
